createdAt,value
2022-10-26T00:01:06.226Z,10.84
2022-10-26T00:03:41.159Z,10.81
2022-10-26T00:06:16.579Z,10.77
2022-10-26T00:08:50.421Z,10.77
2022-10-26T00:11:25.868Z,10.75
2022-10-26T00:13:59.547Z,10.72
2022-10-26T00:16:33.160Z,10.70
2022-10-26T00:19:07.545Z,10.67
2022-10-26T00:21:41.055Z,10.64
2022-10-26T00:24:15.349Z,10.61
2022-10-26T00:26:50.206Z,10.60
2022-10-26T00:29:23.958Z,10.55
2022-10-26T00:31:57.469Z,10.52
2022-10-26T00:34:31.174Z,10.50
2022-10-26T00:37:04.689Z,10.48
2022-10-26T00:39:38.428Z,10.45
2022-10-26T00:42:16.229Z,10.41
2022-10-26T00:45:06.134Z,10.40
2022-10-26T00:47:43.974Z,10.39
2022-10-26T00:50:21.632Z,10.39
2022-10-26T00:52:56.646Z,10.36
2022-10-26T00:55:34.129Z,10.36
2022-10-26T00:58:10.976Z,10.34
2022-10-26T01:00:45.327Z,10.31
2022-10-26T01:03:19.679Z,10.28
2022-10-26T01:05:56.729Z,10.24
2022-10-26T01:08:31.519Z,10.23
2022-10-26T01:11:06.276Z,10.21
2022-10-26T01:13:43.784Z,10.19
2022-10-26T01:16:31.681Z,10.18
2022-10-26T01:19:32.250Z,10.18
2022-10-26T01:22:11.591Z,10.16
2022-10-26T01:25:02.890Z,10.12
2022-10-26T01:27:39.437Z,10.11
2022-10-26T01:30:20.436Z,10.09
2022-10-26T01:33:16.269Z,10.08
2022-10-26T01:35:55.480Z,10.05
2022-10-26T01:38:34.094Z,10.05
2022-10-26T01:41:13.022Z,10.02
2022-10-26T01:43:52.359Z,10.00
2022-10-26T01:46:30.097Z,9.99
2022-10-26T01:49:08.422Z,9.99
2022-10-26T01:51:44.684Z,9.98
2022-10-26T01:54:18.546Z,9.96
2022-10-26T01:56:55.210Z,9.95
2022-10-26T01:59:43.784Z,9.92
2022-10-26T02:02:49.208Z,9.94
2022-10-26T02:05:37.951Z,9.95
2022-10-26T02:08:25.723Z,9.94
2022-10-26T02:11:12.112Z,9.93
2022-10-26T02:13:52.149Z,9.92
2022-10-26T02:16:28.004Z,9.91
2022-10-26T02:19:10.160Z,9.87
2022-10-26T02:21:47.413Z,9.86
2022-10-26T02:24:23.275Z,9.83
2022-10-26T02:26:58.309Z,9.78
2022-10-26T02:29:34.380Z,9.78
2022-10-26T02:32:10.165Z,9.77
2022-10-26T02:34:47.628Z,9.75
2022-10-26T02:37:25.130Z,9.76
2022-10-26T02:40:01.454Z,9.75
2022-10-26T02:42:36.371Z,9.72
2022-10-26T02:45:13.288Z,9.71
2022-10-26T02:47:47.620Z,9.68
2022-10-26T02:50:29.443Z,9.66
2022-10-26T02:53:11.872Z,9.64
2022-10-26T02:55:51.309Z,9.62
2022-10-26T02:58:29.921Z,9.59
2022-10-26T03:01:03.664Z,9.57
2022-10-26T03:03:37.864Z,9.56
2022-10-26T03:06:12.878Z,9.50
2022-10-26T03:08:46.606Z,9.50
2022-10-26T03:11:20.275Z,9.46
2022-10-26T03:13:54.052Z,9.44
2022-10-26T03:16:28.481Z,9.43
2022-10-26T03:19:02.240Z,9.44
2022-10-26T03:21:37.071Z,9.43
2022-10-26T03:24:11.274Z,9.41
2022-10-26T03:26:44.879Z,9.37
2022-10-26T03:29:18.629Z,9.37
2022-10-26T03:31:54.490Z,9.35
2022-10-26T03:34:28.195Z,9.36
2022-10-26T03:37:03.256Z,9.36
2022-10-26T03:39:37.112Z,9.34
2022-10-26T03:42:10.641Z,9.31
2022-10-26T03:44:44.388Z,9.29
2022-10-26T03:47:17.945Z,9.28
2022-10-26T03:49:51.689Z,9.29
2022-10-26T03:52:26.599Z,9.30
2022-10-26T03:55:00.303Z,9.27
2022-10-26T03:57:34.065Z,9.22
2022-10-26T04:00:09.028Z,9.18
2022-10-26T04:02:46.866Z,9.15
2022-10-26T04:05:20.872Z,9.14
2022-10-26T04:07:57.336Z,9.14
2022-10-26T04:10:31.955Z,9.14
2022-10-26T04:13:05.479Z,9.14
2022-10-26T04:15:39.457Z,9.09
2022-10-26T04:18:13.817Z,9.09
2022-10-26T04:20:47.692Z,9.10
2022-10-26T04:23:22.831Z,9.12
2022-10-26T04:25:56.516Z,9.13
2022-10-26T04:28:29.948Z,9.13
2022-10-26T04:31:03.813Z,9.10
2022-10-26T04:33:37.286Z,9.08
2022-10-26T04:36:11.237Z,9.10
2022-10-26T04:38:46.165Z,9.09
2022-10-26T04:41:19.961Z,9.07
2022-10-26T04:43:53.400Z,9.09
2022-10-26T04:46:27.120Z,9.07
2022-10-26T04:49:00.657Z,9.07
2022-10-26T04:51:34.396Z,9.06
2022-10-26T04:54:09.341Z,9.05
2022-10-26T04:56:43.127Z,9.05
2022-10-26T04:59:17.122Z,9.04
2022-10-26T05:01:50.920Z,9.04
2022-10-26T05:04:24.554Z,9.07
2022-10-26T05:06:58.435Z,9.04
2022-10-26T05:09:33.368Z,9.06
2022-10-26T05:12:07.094Z,9.06
2022-10-26T05:14:40.520Z,9.07
2022-10-26T05:17:14.404Z,9.07
2022-10-26T05:19:55.232Z,9.06
2022-10-26T05:22:28.914Z,9.05
2022-10-26T05:25:03.852Z,9.05
2022-10-26T05:27:37.579Z,9.02
2022-10-26T05:30:12.138Z,9.02
2022-10-26T05:32:46.114Z,9.01
2022-10-26T05:35:19.850Z,9.00
2022-10-26T05:37:53.774Z,9.00
2022-10-26T05:40:29.330Z,9.00
2022-10-26T05:43:03.934Z,8.97
2022-10-26T05:45:37.438Z,8.98
2022-10-26T05:48:11.311Z,8.97
2022-10-26T05:50:44.748Z,8.98
2022-10-26T05:53:18.704Z,8.98
2022-10-26T05:55:55.306Z,8.97
2022-10-26T05:58:29.482Z,8.98
2022-10-26T06:01:16.517Z,9.01
2022-10-26T06:04:04.069Z,9.01
2022-10-26T06:06:41.029Z,9.01
2022-10-26T06:09:15.837Z,9.04
2022-10-26T06:11:51.578Z,9.05
2022-10-26T06:14:25.735Z,9.07
2022-10-26T06:17:12.984Z,9.07
2022-10-26T06:19:58.969Z,9.08
2022-10-26T06:22:45.785Z,9.10
2022-10-26T06:25:28.701Z,9.11
2022-10-26T06:28:17.814Z,9.13
2022-10-26T06:30:51.673Z,9.16
2022-10-26T06:33:30.673Z,9.18
2022-10-26T06:36:20.816Z,9.19
2022-10-26T06:38:57.060Z,9.21
2022-10-26T06:41:33.865Z,9.23
2022-10-26T06:44:16.570Z,9.28
2022-10-26T06:46:55.970Z,9.31
2022-10-26T06:49:32.607Z,9.35
2022-10-26T06:52:14.548Z,9.39
2022-10-26T06:54:51.381Z,9.44
2022-10-26T06:57:29.629Z,9.48
2022-10-26T07:00:07.336Z,9.55
2022-10-26T07:02:41.211Z,9.66
2022-10-26T07:05:15.123Z,9.68
2022-10-26T07:07:49.460Z,9.69
2022-10-26T07:10:24.410Z,9.79
2022-10-26T07:12:58.153Z,10.16
2022-10-26T07:15:33.107Z,11.02
2022-10-26T07:18:08.360Z,11.42
2022-10-26T07:20:42.944Z,11.77
2022-10-26T07:23:16.829Z,12.43
2022-10-26T07:25:50.416Z,11.91
2022-10-26T07:28:24.118Z,11.38
2022-10-26T07:30:59.478Z,10.97
2022-10-26T07:33:35.882Z,10.73
2022-10-26T07:36:11.846Z,10.63
2022-10-26T07:38:45.702Z,10.62
2022-10-26T07:41:19.209Z,10.63
2022-10-26T07:43:53.029Z,10.63
2022-10-26T07:46:28.545Z,10.64
2022-10-26T07:49:02.577Z,10.70
2022-10-26T07:51:36.033Z,10.80
2022-10-26T07:54:09.789Z,10.81
2022-10-26T07:56:43.330Z,10.87
2022-10-26T07:59:17.110Z,10.95
2022-10-26T08:01:52.099Z,11.01
2022-10-26T08:04:25.994Z,11.03
2022-10-26T08:06:59.976Z,11.14
2022-10-26T08:09:36.631Z,11.19
2022-10-26T08:12:13.604Z,11.33
2022-10-26T08:14:49.876Z,11.42
2022-10-26T08:17:26.246Z,11.50
2022-10-26T08:20:00.394Z,11.55
2022-10-26T08:22:33.970Z,11.62
2022-10-26T08:25:08.180Z,11.70
2022-10-26T08:27:41.698Z,11.72
2022-10-26T08:30:15.688Z,11.84
2022-10-26T08:32:50.789Z,11.85
2022-10-26T08:35:24.904Z,11.96
2022-10-26T08:37:58.433Z,12.02
2022-10-26T08:40:34.358Z,12.06
2022-10-26T08:43:17.893Z,12.16
2022-10-26T08:45:55.158Z,12.29
2022-10-26T08:48:35.350Z,12.34
2022-10-26T08:51:15.224Z,12.41
2022-10-26T08:53:53.621Z,12.55
2022-10-26T08:56:29.357Z,12.54
2022-10-26T08:59:12.023Z,12.68
2022-10-26T09:01:48.181Z,12.75
2022-10-26T09:04:28.105Z,12.92
2022-10-26T09:07:13.260Z,13.04
2022-10-26T09:09:58.410Z,13.06
2022-10-26T09:12:45.822Z,13.17
2022-10-26T09:15:29.789Z,13.22
2022-10-26T09:18:16.942Z,13.26
2022-10-26T09:21:11.455Z,13.40
2022-10-26T09:23:59.656Z,13.42
2022-10-26T09:26:39.052Z,13.41
2022-10-26T09:29:14.939Z,13.47
2022-10-26T09:31:50.862Z,13.58
2022-10-26T09:34:30.873Z,13.65
2022-10-26T09:37:14.905Z,13.74
2022-10-26T09:39:57.103Z,13.85
2022-10-26T09:42:38.628Z,13.95
2022-10-26T09:45:17.463Z,14.00
2022-10-26T09:47:53.357Z,14.15
2022-10-26T09:50:30.553Z,14.16
2022-10-26T09:53:06.020Z,14.11
2022-10-26T09:55:43.536Z,14.21
2022-10-26T09:58:21.355Z,14.37
2022-10-26T10:00:55.927Z,14.41
2022-10-26T10:03:31.507Z,14.44
2022-10-26T10:06:19.967Z,14.59
2022-10-26T10:09:07.179Z,14.65
2022-10-26T10:11:42.108Z,14.74
2022-10-26T10:14:18.347Z,14.85
2022-10-26T10:16:57.589Z,14.89
2022-10-26T10:19:33.883Z,14.89
2022-10-26T10:22:12.784Z,14.92
2022-10-26T10:24:55.692Z,14.93
2022-10-26T10:27:31.160Z,15.09
2022-10-26T10:30:22.373Z,15.23
2022-10-26T10:33:07.708Z,15.28
2022-10-26T10:35:50.029Z,15.22
2022-10-26T10:38:23.846Z,15.13
2022-10-26T10:41:02.675Z,15.15
2022-10-26T10:43:36.510Z,15.18
2022-10-26T10:46:10.542Z,15.15
2022-10-26T10:48:48.516Z,15.18
2022-10-26T10:51:24.850Z,15.31
2022-10-26T10:53:58.798Z,15.54
2022-10-26T10:56:48.417Z,15.62
2022-10-26T10:59:56.140Z,15.62
2022-10-26T11:02:59.384Z,15.67
2022-10-26T11:05:53.365Z,15.70
2022-10-26T11:08:31.443Z,15.71
2022-10-26T11:11:09.696Z,15.82
2022-10-26T11:13:52.339Z,15.91
2022-10-26T11:16:30.717Z,15.95
2022-10-26T11:19:14.440Z,15.90
2022-10-26T11:21:51.987Z,16.08
2022-10-26T11:24:30.529Z,16.16
2022-10-26T11:27:13.058Z,16.28
2022-10-26T11:29:55.965Z,16.26
2022-10-26T11:32:33.768Z,16.13
2022-10-26T11:35:16.020Z,16.20
2022-10-26T11:37:57.649Z,16.29
2022-10-26T11:40:39.835Z,16.34
2022-10-26T11:43:19.925Z,16.43
2022-10-26T11:46:06.335Z,16.44
2022-10-26T11:48:47.894Z,16.25
2022-10-26T11:51:37.607Z,16.22
2022-10-26T11:54:16.789Z,16.39
2022-10-26T11:56:51.775Z,16.51
2022-10-26T11:59:32.274Z,16.57
2022-10-26T12:02:16.375Z,16.71
2022-10-26T12:04:55.425Z,16.71
2022-10-26T12:07:32.405Z,16.83
2022-10-26T12:10:16.382Z,16.78
2022-10-26T12:12:56.422Z,16.77
2022-10-26T12:15:40.165Z,16.71
2022-10-26T12:18:53.872Z,16.68
2022-10-26T12:21:29.566Z,16.69
2022-10-26T12:24:23.938Z,16.73
2022-10-26T12:26:59.020Z,16.78
2022-10-26T12:29:38.969Z,16.95
2022-10-26T12:32:46.627Z,16.90
2022-10-26T12:35:36.923Z,16.91
2022-10-26T12:38:47.131Z,16.89
2022-10-26T12:41:25.790Z,16.96
2022-10-26T12:44:06.143Z,17.04
2022-10-26T12:46:45.402Z,17.12
2022-10-26T12:50:01.045Z,17.27
2022-10-26T12:52:42.763Z,17.32
2022-10-26T12:55:41.371Z,17.39
2022-10-26T12:58:42.572Z,17.47
2022-10-26T13:01:46.644Z,17.47
2022-10-26T13:04:39.373Z,17.56
2022-10-26T13:07:19.486Z,17.62
2022-10-26T13:10:00.222Z,17.65
2022-10-26T13:12:47.685Z,17.66
2022-10-26T13:15:25.567Z,17.63
2022-10-26T13:18:08.952Z,17.67
2022-10-26T13:20:54.913Z,17.71
2022-10-26T13:23:31.327Z,17.71
2022-10-26T13:26:13.264Z,17.74
2022-10-26T13:28:50.698Z,17.76
2022-10-26T13:31:56.686Z,17.77
2022-10-26T13:34:32.767Z,17.84
2022-10-26T13:37:14.090Z,17.83
2022-10-26T13:39:50.371Z,17.82
2022-10-26T13:42:27.581Z,17.80
2022-10-26T13:45:07.457Z,17.76
2022-10-26T13:47:45.697Z,17.80
2022-10-26T13:50:24.091Z,17.81
2022-10-26T13:53:02.535Z,17.74
2022-10-26T13:55:51.631Z,17.69
2022-10-26T13:58:30.112Z,17.65
2022-10-26T14:01:14.220Z,17.61
2022-10-26T14:03:48.692Z,17.54
2022-10-26T14:06:29.045Z,17.61
2022-10-26T14:09:05.829Z,17.59
2022-10-26T14:11:50.806Z,17.57
2022-10-26T14:14:29.237Z,17.55
2022-10-26T14:17:03.943Z,17.58
2022-10-26T14:19:40.465Z,17.56
2022-10-26T14:22:23.137Z,17.52
2022-10-26T14:24:58.940Z,17.52
2022-10-26T14:27:34.811Z,17.51
2022-10-26T14:30:24.329Z,17.50
2022-10-26T14:32:58.642Z,17.49
2022-10-26T14:35:35.981Z,17.56
2022-10-26T14:38:18.346Z,17.67
2022-10-26T14:40:52.936Z,17.64
2022-10-26T14:43:27.285Z,17.71
2022-10-26T14:46:02.374Z,17.73
2022-10-26T14:48:37.009Z,17.69
2022-10-26T14:51:16.527Z,17.66
2022-10-26T14:53:52.774Z,17.65
2022-10-26T14:56:31.240Z,17.57
2022-10-26T14:59:12.692Z,17.55
2022-10-26T15:01:54.312Z,17.50
2022-10-26T15:04:34.072Z,17.41
2022-10-26T15:07:17.264Z,17.35
2022-10-26T15:09:52.709Z,17.34
2022-10-26T15:12:33.529Z,17.29
2022-10-26T15:17:57.151Z,17.31
2022-10-26T15:20:32.014Z,17.23
2022-10-26T15:23:05.520Z,17.14
2022-10-26T15:25:40.406Z,17.06
2022-10-26T15:28:23.794Z,16.97
2022-10-26T15:31:02.744Z,16.90
2022-10-26T15:33:39.123Z,16.89
2022-10-26T15:36:17.523Z,16.76
2022-10-26T15:38:51.660Z,16.72
2022-10-26T15:41:29.572Z,16.66
2022-10-26T15:44:05.941Z,16.56
2022-10-26T15:46:40.559Z,16.51
2022-10-26T15:49:20.724Z,16.44
2022-10-26T15:51:55.908Z,16.36
2022-10-26T15:54:29.442Z,16.27
2022-10-26T15:57:03.619Z,16.19
2022-10-26T15:59:37.111Z,16.22
2022-10-26T16:02:14.879Z,16.12
2022-10-26T16:04:49.791Z,16.04
2022-10-26T16:07:27.017Z,16.05
2022-10-26T16:10:00.763Z,16.04
2022-10-26T16:12:34.525Z,15.99
2022-10-26T16:15:10.090Z,15.95
2022-10-26T16:17:43.839Z,15.95
2022-10-26T16:20:22.755Z,15.95
2022-10-26T16:22:56.693Z,15.96
2022-10-26T16:25:30.479Z,15.87
2022-10-26T16:28:04.174Z,15.81
2022-10-26T16:30:37.727Z,15.82
2022-10-26T16:33:11.584Z,15.81
2022-10-26T16:35:46.354Z,15.84
2022-10-26T16:38:20.069Z,15.86
2022-10-26T16:41:01.916Z,15.85
2022-10-26T16:43:37.320Z,15.87
2022-10-26T16:46:13.832Z,15.82
2022-10-26T16:48:50.126Z,15.78
2022-10-26T16:51:26.937Z,15.73
2022-10-26T16:54:00.564Z,15.64
2022-10-26T16:56:34.114Z,15.58
2022-10-26T16:59:07.716Z,15.55
2022-10-26T17:01:41.393Z,15.49
2022-10-26T17:04:15.883Z,15.42
2022-10-26T17:06:50.725Z,15.37
2022-10-26T17:09:24.344Z,15.33
2022-10-26T17:12:01.775Z,15.29
2022-10-26T17:14:35.847Z,15.26
2022-10-26T17:17:09.712Z,15.21
2022-10-26T17:19:43.370Z,15.18
2022-10-26T17:22:18.402Z,15.15
2022-10-26T17:24:52.044Z,15.11
2022-10-26T17:27:26.674Z,15.09
2022-10-26T17:30:00.258Z,15.05
2022-10-26T17:32:33.751Z,15.01
2022-10-26T17:35:08.110Z,14.98
2022-10-26T17:37:43.549Z,14.96
2022-10-26T17:40:17.315Z,14.92
2022-10-26T17:42:50.851Z,14.86
2022-10-26T17:45:24.528Z,14.84
2022-10-26T17:47:57.987Z,14.82
2022-10-26T17:50:31.668Z,14.82
2022-10-26T17:53:07.531Z,14.82
2022-10-26T17:55:41.253Z,14.85
2022-10-26T17:58:15.003Z,14.87
2022-10-26T18:00:50.029Z,14.89
2022-10-26T18:03:23.708Z,14.94
2022-10-26T18:05:58.007Z,14.99
2022-10-26T18:08:33.399Z,15.02
2022-10-26T18:11:08.462Z,15.02
2022-10-26T18:13:42.574Z,15.06
2022-10-26T18:16:18.348Z,15.08
2022-10-26T18:19:00.629Z,15.11
2022-10-26T18:21:37.459Z,15.16
2022-10-26T18:24:12.451Z,15.18
2022-10-26T18:26:46.163Z,15.17
2022-10-26T18:29:19.591Z,15.21
2022-10-26T18:31:53.254Z,15.22
2022-10-26T18:34:26.878Z,15.22
2022-10-26T18:37:00.529Z,15.21
2022-10-26T18:39:35.460Z,15.22
2022-10-26T18:42:09.659Z,15.21
2022-10-26T18:44:44.017Z,15.21
2022-10-26T18:47:18.341Z,15.22
2022-10-26T18:49:51.912Z,15.21
2022-10-26T18:52:27.947Z,15.16
2022-10-26T18:55:02.829Z,15.11
2022-10-26T18:57:36.523Z,15.07
2022-10-26T19:00:11.022Z,15.04
2022-10-26T19:02:47.442Z,15.01
2022-10-26T19:05:23.564Z,15.01
2022-10-26T19:07:57.258Z,15.01
2022-10-26T19:10:32.287Z,14.96
2022-10-26T19:13:07.355Z,14.88
2022-10-26T19:15:40.955Z,14.82
2022-10-26T19:18:14.827Z,14.75
2022-10-26T19:20:50.376Z,14.71
2022-10-26T19:23:24.044Z,14.72
2022-10-26T19:25:58.927Z,14.65
2022-10-26T19:28:33.149Z,14.58
2022-10-26T19:31:07.950Z,14.54
2022-10-26T19:33:41.895Z,14.49
2022-10-26T19:36:15.415Z,14.43
2022-10-26T19:38:49.090Z,14.43
2022-10-26T19:41:26.511Z,14.39
2022-10-26T19:44:00.223Z,14.33
2022-10-26T19:46:33.924Z,14.30
2022-10-26T19:49:08.457Z,14.30
2022-10-26T19:51:42.101Z,14.28
2022-10-26T19:54:15.734Z,14.31
2022-10-26T19:56:50.596Z,14.27
2022-10-26T19:59:24.339Z,14.22
2022-10-26T20:02:00.280Z,14.20
2022-10-26T20:04:33.992Z,14.17
2022-10-26T20:07:07.424Z,14.12
2022-10-26T20:09:41.188Z,14.06
2022-10-26T20:12:16.070Z,14.04
2022-10-26T20:14:49.745Z,14.04
2022-10-26T20:17:27.557Z,14.03
2022-10-26T20:20:02.043Z,13.98
2022-10-26T20:22:35.676Z,13.90
2022-10-26T20:25:09.703Z,13.81
2022-10-26T20:27:44.535Z,13.71
2022-10-26T20:30:18.502Z,13.67
2022-10-26T20:32:51.951Z,13.62
2022-10-26T20:35:25.799Z,13.57
2022-10-26T20:38:00.107Z,13.55
2022-10-26T20:40:35.366Z,13.52
2022-10-26T20:43:17.558Z,13.47
2022-10-26T20:45:51.819Z,13.41
2022-10-26T20:48:25.905Z,13.35
2022-10-26T20:51:05.894Z,13.30
2022-10-26T20:53:44.165Z,13.25
2022-10-26T20:56:23.859Z,13.22
2022-10-26T20:59:01.974Z,13.22
2022-10-26T21:01:38.339Z,13.20
2022-10-26T21:04:12.376Z,13.18
2022-10-26T21:06:46.519Z,13.15
2022-10-26T21:09:23.247Z,13.11
2022-10-26T21:11:58.438Z,13.13
2022-10-26T21:14:39.554Z,13.12
2022-10-26T21:17:13.399Z,13.08
2022-10-26T21:19:47.135Z,13.03
2022-10-26T21:22:21.365Z,13.01
2022-10-26T21:24:55.067Z,12.96
2022-10-26T21:27:29.155Z,12.94
2022-10-26T21:30:05.559Z,12.91
2022-10-26T21:32:39.947Z,12.87
2022-10-26T21:35:14.004Z,12.84
2022-10-26T21:37:48.045Z,12.87
2022-10-26T21:40:21.820Z,12.84
2022-10-26T21:42:55.628Z,12.81
2022-10-26T21:45:30.431Z,12.77
2022-10-26T21:48:04.433Z,12.74
2022-10-26T21:50:37.953Z,12.69
2022-10-26T21:53:11.742Z,12.66
2022-10-26T21:55:45.215Z,12.61
2022-10-26T21:58:18.902Z,12.58
2022-10-26T22:00:53.861Z,12.55
2022-10-26T22:03:27.528Z,12.49
2022-10-26T22:06:01.555Z,12.48
2022-10-26T22:08:36.041Z,12.47
2022-10-26T22:11:15.183Z,12.46
2022-10-26T22:13:50.620Z,12.47
2022-10-26T22:16:27.197Z,12.45
2022-10-26T22:19:07.384Z,12.42
2022-10-26T22:21:42.260Z,12.42
2022-10-26T22:24:16.404Z,12.39
2022-10-26T22:26:49.973Z,12.37
2022-10-26T22:29:23.646Z,12.35
2022-10-26T22:31:58.611Z,12.32
2022-10-26T22:34:32.245Z,12.37
2022-10-26T22:37:05.714Z,12.37
2022-10-26T22:39:39.461Z,12.39
2022-10-26T22:42:13.028Z,12.38
2022-10-26T22:44:46.691Z,12.38
2022-10-26T22:47:21.704Z,12.36
2022-10-26T22:49:55.507Z,12.34
2022-10-26T22:52:29.017Z,12.31
2022-10-26T22:55:02.975Z,12.32
2022-10-26T22:57:36.442Z,12.32
2022-10-26T23:00:10.961Z,12.32
2022-10-26T23:02:45.863Z,12.28
2022-10-26T23:05:19.675Z,12.28
2022-10-26T23:07:53.345Z,12.26
2022-10-26T23:10:27.250Z,12.24
2022-10-26T23:13:00.780Z,12.24
2022-10-26T23:15:34.474Z,12.26
2022-10-26T23:18:09.451Z,12.28
2022-10-26T23:20:43.155Z,12.30
2022-10-26T23:23:16.760Z,12.32
2022-10-26T23:25:50.459Z,12.31
2022-10-26T23:28:24.085Z,12.31
2022-10-26T23:30:58.064Z,12.33
2022-10-26T23:33:33.571Z,12.31
2022-10-26T23:36:07.736Z,12.26
2022-10-26T23:38:41.363Z,12.21
2022-10-26T23:41:15.395Z,12.17
2022-10-26T23:43:48.923Z,12.13
2022-10-26T23:46:22.745Z,12.10
2022-10-26T23:48:57.830Z,12.08
2022-10-26T23:51:31.474Z,12.07
2022-10-26T23:54:04.967Z,12.03
2022-10-26T23:56:38.663Z,12.00
2022-10-26T23:59:12.264Z,12.01
